Details for Ryanair at EIDW




Go Back


Latest METAR
Local Time

EIDW 240730Z 04009KT CAVOK 13/10 Q1023 NOSIG

24/05/2018, 08:53:07

Description
Results
Ryanair Logo
Number of Pilots based at EIDW
0 Pilots Based here
Number of Ryanair Flights Departed from EIDW
27 Flights Departed
Number of Ryanair Flights Arrived at EIDW
31 Flights Arrived
Number of Ryanair Schedules Departing from EIDW
266 Schedules
Number of Ryanair Schedules Arriving at EIDW
270 Schedules
Number of Ryanair Schedules Departing from EIDW availible today
117 Schedules Today
Number of Ryanair Schedules Arriving at EIDW availible today
117 Schedules Today
Average Landing Rate at EIDW
-222 fpm
Ryanair Average Landing Rate at EIDW
-229 fpm
Total Fuel Purchased at EIDW by Ryanair
116,580.83 kgs / 257,014.10 lbs

Pilots Based at EIDW


Pilot ID
Pilot Name
Pilot Rank
No. of Flights
No. of Flying Hours
There are no pilots assigned to this hub!   Will you be the first?
Content